createdAt,value
2023-05-09T00:00:22.674Z,1017.83
2023-05-09T00:01:25.677Z,1017.80
2023-05-09T00:02:29.229Z,1017.78
2023-05-09T00:04:04.996Z,1017.73
2023-05-09T00:05:08.327Z,1017.67
2023-05-09T00:06:11.756Z,1017.66
2023-05-09T00:07:46.287Z,1017.61
2023-05-09T00:08:49.031Z,1017.59
2023-05-09T00:09:52.093Z,1017.56
2023-05-09T00:11:27.007Z,1017.47
2023-05-09T00:12:29.751Z,1017.45
2023-05-09T00:13:32.962Z,1017.40
2023-05-09T00:15:07.952Z,1017.38
2023-05-09T00:16:11.589Z,1017.39
2023-05-09T00:17:14.877Z,1017.40
2023-05-09T00:18:50.192Z,1017.42
2023-05-09T00:19:53.197Z,1017.42
2023-05-09T00:20:56.211Z,1017.42
2023-05-09T00:22:30.929Z,1017.47
2023-05-09T00:23:33.933Z,1017.45
2023-05-09T00:24:36.918Z,1017.45
2023-05-09T00:26:11.960Z,1017.47
2023-05-09T00:27:14.626Z,1017.46
2023-05-09T00:28:17.411Z,1017.48
2023-05-09T00:29:51.981Z,1017.45
2023-05-09T00:30:54.863Z,1017.42
2023-05-09T00:31:57.958Z,1017.40
2023-05-09T00:33:32.944Z,1017.37
2023-05-09T00:34:36.025Z,1017.41
2023-05-09T00:35:38.929Z,1017.38
2023-05-09T00:37:13.822Z,1017.37
2023-05-09T00:38:16.868Z,1017.38
2023-05-09T00:39:19.809Z,1017.36
2023-05-09T00:40:54.759Z,1017.33
2023-05-09T00:41:57.641Z,1017.34
2023-05-09T00:43:00.493Z,1017.32
2023-05-09T00:44:35.280Z,1017.33
2023-05-09T00:45:38.097Z,1017.32
2023-05-09T00:46:41.257Z,1017.30
2023-05-09T00:48:15.978Z,1017.27
2023-05-09T00:49:18.845Z,1017.23
2023-05-09T00:50:21.869Z,1017.22
2023-05-09T00:51:56.623Z,1017.17
2023-05-09T00:52:59.641Z,1017.18
2023-05-09T00:54:02.654Z,1017.17
2023-05-09T00:55:38.585Z,1017.18
2023-05-09T00:56:41.814Z,1017.16
2023-05-09T00:57:44.788Z,1017.12
2023-05-09T00:59:21.929Z,1017.11
2023-05-09T01:00:23.589Z,1017.10
2023-05-09T01:01:26.650Z,1017.04
2023-05-09T01:02:30.249Z,1017.05
2023-05-09T01:04:05.744Z,1017.05
2023-05-09T01:05:08.705Z,1017.06
2023-05-09T01:06:12.469Z,1017.03
2023-05-09T01:07:47.679Z,1017.01
2023-05-09T01:08:50.589Z,1017.01
2023-05-09T01:09:53.726Z,1017.02
2023-05-09T01:11:28.756Z,1016.94
2023-05-09T01:12:31.808Z,1016.93
2023-05-09T01:13:35.122Z,1016.91
2023-05-09T01:15:09.749Z,1016.86
2023-05-09T01:16:13.428Z,1016.85
2023-05-09T01:17:16.526Z,1016.83
2023-05-09T01:18:51.251Z,1016.80
2023-05-09T01:19:53.976Z,1016.79
2023-05-09T01:20:56.726Z,1016.81
2023-05-09T01:22:31.548Z,1016.76
2023-05-09T01:23:34.835Z,1016.77
2023-05-09T01:24:37.937Z,1016.78
2023-05-09T01:26:12.817Z,1016.74
2023-05-09T01:27:15.853Z,1016.74
2023-05-09T01:28:18.941Z,1016.74
2023-05-09T01:29:53.980Z,1016.72
2023-05-09T01:30:56.905Z,1016.73
2023-05-09T01:32:00.218Z,1016.71
2023-05-09T01:33:34.979Z,1016.73
2023-05-09T01:34:37.771Z,1016.70
2023-05-09T01:35:40.717Z,1016.70
2023-05-09T01:37:15.420Z,1016.67
2023-05-09T01:38:18.377Z,1016.65
2023-05-09T01:39:21.225Z,1016.67
2023-05-09T01:40:56.314Z,1016.65
2023-05-09T01:41:59.287Z,1016.62
2023-05-09T01:43:02.385Z,1016.66
2023-05-09T01:44:37.386Z,1016.63
2023-05-09T01:45:40.465Z,1016.67
2023-05-09T01:46:43.702Z,1016.62
2023-05-09T01:48:18.926Z,1016.62
2023-05-09T01:49:21.780Z,1016.61
2023-05-09T01:50:24.721Z,1016.58
2023-05-09T01:51:59.433Z,1016.60
2023-05-09T01:53:02.155Z,1016.57
2023-05-09T01:54:04.879Z,1016.57
2023-05-09T01:55:39.694Z,1016.55
2023-05-09T01:56:42.765Z,1016.55
2023-05-09T01:57:45.661Z,1016.55
2023-05-09T01:59:20.541Z,1016.57
2023-05-09T02:00:23.292Z,1016.56
2023-05-09T02:01:27.158Z,1016.59
2023-05-09T02:02:30.589Z,1016.51
2023-05-09T02:04:06.190Z,1016.53
2023-05-09T02:05:09.128Z,1016.55
2023-05-09T02:06:12.602Z,1016.51
2023-05-09T02:07:47.232Z,1016.51
2023-05-09T02:08:50.060Z,1016.55
2023-05-09T02:09:53.000Z,1016.57
2023-05-09T02:11:27.570Z,1016.55
2023-05-09T02:12:30.456Z,1016.52
2023-05-09T02:13:33.844Z,1016.53
2023-05-09T02:15:08.807Z,1016.50
2023-05-09T02:16:12.421Z,1016.54
2023-05-09T02:17:18.553Z,1016.52
2023-05-09T02:18:53.428Z,1016.51
2023-05-09T02:19:56.345Z,1016.48
2023-05-09T02:20:59.664Z,1016.48
2023-05-09T02:22:34.732Z,1016.46
2023-05-09T02:23:37.702Z,1016.46
2023-05-09T02:24:40.831Z,1016.44
2023-05-09T02:26:15.757Z,1016.42
2023-05-09T02:27:18.601Z,1016.42
2023-05-09T02:28:21.561Z,1016.40
2023-05-09T02:29:56.397Z,1016.42
2023-05-09T02:30:59.429Z,1016.42
2023-05-09T02:32:02.588Z,1016.45
2023-05-09T02:33:37.948Z,1016.42
2023-05-09T02:34:40.842Z,1016.36
2023-05-09T02:35:43.717Z,1016.36
2023-05-09T02:37:18.583Z,1016.38
2023-05-09T02:38:21.462Z,1016.40
2023-05-09T02:39:24.485Z,1016.36
2023-05-09T02:41:01.115Z,1016.31
2023-05-09T02:42:04.106Z,1016.31
2023-05-09T02:43:07.133Z,1016.34
2023-05-09T02:44:41.745Z,1016.29
2023-05-09T02:45:44.891Z,1016.30
2023-05-09T02:46:48.274Z,1016.24
2023-05-09T02:48:23.097Z,1016.20
2023-05-09T02:49:43.573Z,1016.13
2023-05-09T02:50:46.722Z,1016.17
2023-05-09T02:52:21.629Z,1016.16
2023-05-09T02:53:24.695Z,1016.13
2023-05-09T02:54:27.705Z,1016.14
2023-05-09T02:56:03.158Z,1016.11
2023-05-09T02:57:06.097Z,1016.10
2023-05-09T02:58:24.416Z,1016.11
2023-05-09T02:59:59.214Z,1016.08
2023-05-09T03:00:24.017Z,1016.08
2023-05-09T03:01:27.054Z,1016.07
2023-05-09T03:02:30.629Z,1016.04
2023-05-09T03:04:06.168Z,1015.99
2023-05-09T03:05:09.261Z,1015.96
2023-05-09T03:06:12.908Z,1015.99
2023-05-09T03:07:47.850Z,1015.96
2023-05-09T03:08:51.007Z,1015.95
2023-05-09T03:09:53.913Z,1015.95
2023-05-09T03:11:28.665Z,1015.97
2023-05-09T03:12:31.706Z,1015.94
2023-05-09T03:13:35.241Z,1015.95
2023-05-09T03:15:09.855Z,1015.92
2023-05-09T03:16:13.446Z,1015.90
2023-05-09T03:17:16.787Z,1015.93
2023-05-09T03:18:51.793Z,1015.89
2023-05-09T03:19:54.666Z,1015.93
2023-05-09T03:21:01.411Z,1015.89
2023-05-09T03:22:36.383Z,1015.91
2023-05-09T03:23:39.379Z,1015.92
2023-05-09T03:24:42.338Z,1015.93
2023-05-09T03:26:17.560Z,1015.91
2023-05-09T03:27:20.648Z,1015.90
2023-05-09T03:28:23.712Z,1015.87
2023-05-09T03:29:58.301Z,1015.86
2023-05-09T03:31:01.360Z,1015.88
2023-05-09T03:32:04.393Z,1015.85
2023-05-09T03:33:38.965Z,1015.85
2023-05-09T03:34:41.888Z,1015.83
2023-05-09T03:35:44.866Z,1015.81
2023-05-09T03:37:19.451Z,1015.83
2023-05-09T03:38:24.697Z,1015.83
2023-05-09T03:39:27.662Z,1015.81
2023-05-09T03:41:02.494Z,1015.79
2023-05-09T03:42:05.635Z,1015.79
2023-05-09T03:43:08.516Z,1015.75
2023-05-09T03:44:43.354Z,1015.69
2023-05-09T03:45:46.231Z,1015.66
2023-05-09T03:46:49.429Z,1015.67
2023-05-09T03:48:24.713Z,1015.65
2023-05-09T03:49:27.453Z,1015.66
2023-05-09T03:50:30.443Z,1015.60
2023-05-09T03:52:05.299Z,1015.63
2023-05-09T03:53:08.289Z,1015.60
2023-05-09T03:54:11.202Z,1015.64
2023-05-09T03:55:46.383Z,1015.57
2023-05-09T03:56:49.426Z,1015.58
2023-05-09T03:57:52.395Z,1015.57
2023-05-09T03:59:27.041Z,1015.63
2023-05-09T04:00:23.563Z,1015.62
2023-05-09T04:01:26.617Z,1015.60
2023-05-09T04:02:32.501Z,1015.61
2023-05-09T04:04:07.997Z,1015.61
2023-05-09T04:05:52.172Z,1015.60
2023-05-09T04:06:55.416Z,1015.62
2023-05-09T04:07:58.376Z,1015.64
2023-05-09T04:09:33.318Z,1015.60
2023-05-09T04:10:36.258Z,1015.60
2023-05-09T04:11:39.330Z,1015.61
2023-05-09T04:13:14.642Z,1015.59
2023-05-09T04:14:18.648Z,1015.60
2023-05-09T04:15:22.237Z,1015.58
2023-05-09T04:16:57.296Z,1015.60
2023-05-09T04:18:01.101Z,1015.57
2023-05-09T04:19:04.266Z,1015.55
2023-05-09T04:20:39.369Z,1015.53
2023-05-09T04:21:42.287Z,1015.53
2023-05-09T04:22:46.932Z,1015.47
2023-05-09T04:24:22.381Z,1015.48
2023-05-09T04:25:26.024Z,1015.45
2023-05-09T04:26:29.225Z,1015.41
2023-05-09T04:28:04.213Z,1015.43
2023-05-09T04:29:07.173Z,1015.41
2023-05-09T04:30:10.236Z,1015.41
2023-05-09T04:31:45.808Z,1015.36
2023-05-09T04:32:49.526Z,1015.34
2023-05-09T04:33:52.797Z,1015.35
2023-05-09T04:35:31.864Z,1015.33
2023-05-09T04:36:34.786Z,1015.34
2023-05-09T04:37:37.787Z,1015.30
2023-05-09T04:39:12.826Z,1015.34
2023-05-09T04:40:16.066Z,1015.32
2023-05-09T04:41:19.175Z,1015.32
2023-05-09T04:42:54.351Z,1015.40
2023-05-09T04:43:57.520Z,1015.37
2023-05-09T04:45:00.441Z,1015.32
2023-05-09T04:46:37.253Z,1015.34
2023-05-09T04:47:40.676Z,1015.33
2023-05-09T04:48:43.849Z,1015.30
2023-05-09T04:50:18.723Z,1015.32
2023-05-09T04:51:21.668Z,1015.28
2023-05-09T04:52:24.973Z,1015.28
2023-05-09T04:53:59.928Z,1015.34
2023-05-09T04:55:03.002Z,1015.32
2023-05-09T04:56:06.557Z,1015.30
2023-05-09T04:57:42.010Z,1015.33
2023-05-09T04:58:45.139Z,1015.25
2023-05-09T04:59:48.142Z,1015.25
2023-05-09T05:01:26.632Z,1015.25
2023-05-09T05:02:30.199Z,1015.30
2023-05-09T05:04:05.682Z,1015.23
2023-05-09T05:05:25.479Z,1015.21
2023-05-09T05:06:32.070Z,1015.24
2023-05-09T05:08:07.431Z,1015.18
2023-05-09T05:09:10.716Z,1015.18
2023-05-09T05:10:13.645Z,1015.20
2023-05-09T05:12:06.018Z,1015.14
2023-05-09T05:13:10.541Z,1015.13
2023-05-09T05:14:14.169Z,1015.14
2023-05-09T05:15:49.093Z,1015.13
2023-05-09T05:16:52.605Z,1015.19
2023-05-09T05:17:55.854Z,1015.17
2023-05-09T05:19:31.068Z,1015.17
2023-05-09T05:20:34.297Z,1015.14
2023-05-09T05:21:37.452Z,1015.16
2023-05-09T05:23:12.617Z,1015.13
2023-05-09T05:24:15.475Z,1015.15
2023-05-09T05:25:19.084Z,1015.13
2023-05-09T05:26:53.996Z,1015.09
2023-05-09T05:27:57.014Z,1015.04
2023-05-09T05:29:00.072Z,1015.05
2023-05-09T05:30:36.113Z,1015.03
2023-05-09T05:31:39.552Z,1015.01
2023-05-09T05:32:43.036Z,1015.04
2023-05-09T05:34:18.269Z,1015.03
2023-05-09T05:35:21.865Z,1014.97
2023-05-09T05:36:24.718Z,1014.96
2023-05-09T05:38:00.587Z,1014.95
2023-05-09T05:39:03.497Z,1014.96
2023-05-09T05:40:06.725Z,1014.91
2023-05-09T05:41:41.926Z,1014.92
2023-05-09T05:42:45.026Z,1014.90
2023-05-09T05:43:48.061Z,1014.91
2023-05-09T05:45:24.463Z,1014.87
2023-05-09T05:46:27.946Z,1014.86
2023-05-09T05:47:31.932Z,1014.82
2023-05-09T05:49:09.083Z,1014.77
2023-05-09T05:50:12.370Z,1014.75
2023-05-09T05:51:15.552Z,1014.75
2023-05-09T05:52:50.768Z,1014.74
2023-05-09T05:53:53.857Z,1014.74
2023-05-09T05:54:56.910Z,1014.77
2023-05-09T05:56:32.065Z,1014.71
2023-05-09T05:57:35.033Z,1014.74
2023-05-09T05:58:37.809Z,1014.74
2023-05-09T06:00:23.454Z,1014.71
2023-05-09T06:01:26.885Z,1014.70
2023-05-09T06:02:30.064Z,1014.72
2023-05-09T06:04:06.119Z,1014.69
2023-05-09T06:05:09.449Z,1014.68
2023-05-09T06:06:12.626Z,1014.69
2023-05-09T06:07:47.883Z,1014.70
2023-05-09T06:08:50.710Z,1014.69
2023-05-09T06:09:53.838Z,1014.66
2023-05-09T06:11:28.842Z,1014.64
2023-05-09T06:12:33.777Z,1014.62
2023-05-09T06:13:37.299Z,1014.61
2023-05-09T06:15:12.122Z,1014.54
2023-05-09T06:16:31.106Z,1014.58
2023-05-09T06:17:34.586Z,1014.54
2023-05-09T06:19:09.937Z,1014.52
2023-05-09T06:20:12.973Z,1014.51
2023-05-09T06:21:15.868Z,1014.47
2023-05-09T06:22:51.069Z,1014.39
2023-05-09T06:24:36.268Z,1014.36
2023-05-09T06:25:39.838Z,1014.28
2023-05-09T06:27:14.559Z,1014.21
2023-05-09T06:28:17.707Z,1014.27
2023-05-09T06:29:20.766Z,1014.25
2023-05-09T06:31:11.803Z,1014.26
2023-05-09T06:32:17.545Z,1014.23
2023-05-09T06:33:20.865Z,1014.21
2023-05-09T06:34:56.225Z,1014.21
2023-05-09T06:35:59.735Z,1014.25
2023-05-09T06:37:02.760Z,1014.24
2023-05-09T06:38:37.364Z,1014.25
2023-05-09T06:39:40.322Z,1014.20
2023-05-09T06:40:43.299Z,1014.25
2023-05-09T06:42:18.500Z,1014.23
2023-05-09T06:43:21.707Z,1014.23
2023-05-09T06:44:24.742Z,1014.25
2023-05-09T06:46:00.601Z,1014.24
2023-05-09T06:47:03.814Z,1014.21
2023-05-09T06:48:06.915Z,1014.19
2023-05-09T06:49:41.800Z,1014.17
2023-05-09T06:50:44.808Z,1014.12
2023-05-09T06:51:47.962Z,1014.14
2023-05-09T06:53:22.954Z,1014.12
2023-05-09T06:54:26.174Z,1014.06
2023-05-09T06:55:29.535Z,1014.03
2023-05-09T06:57:06.253Z,1014.00
2023-05-09T06:58:09.285Z,1014.04
2023-05-09T06:59:12.460Z,1013.99
2023-05-09T07:00:23.135Z,1014.02
2023-05-09T07:01:26.613Z,1014.00
2023-05-09T07:02:30.106Z,1013.93
2023-05-09T07:04:05.857Z,1013.98
2023-05-09T07:05:09.425Z,1013.96
2023-05-09T07:06:13.290Z,1013.94
2023-05-09T07:07:48.744Z,1013.93
2023-05-09T07:08:52.462Z,1013.94
2023-05-09T07:10:10.711Z,1013.92
2023-05-09T07:11:46.514Z,1013.87
2023-05-09T07:12:49.891Z,1013.84
2023-05-09T07:13:52.985Z,1013.83
2023-05-09T07:15:48.917Z,1013.80
2023-05-09T07:16:52.811Z,1013.75
2023-05-09T07:18:16.553Z,1013.76
2023-05-09T07:19:51.547Z,1013.74
2023-05-09T07:20:54.442Z,1013.71
2023-05-09T07:21:57.378Z,1013.69
2023-05-09T07:23:32.610Z,1013.66
2023-05-09T07:24:35.694Z,1013.70
2023-05-09T07:25:39.052Z,1013.68
2023-05-09T07:27:14.240Z,1013.65
2023-05-09T07:28:17.260Z,1013.63
2023-05-09T07:29:20.286Z,1013.61
2023-05-09T07:30:55.278Z,1013.66
2023-05-09T07:31:58.717Z,1013.63
2023-05-09T07:33:02.134Z,1013.65
2023-05-09T07:34:37.330Z,1013.62
2023-05-09T07:35:40.320Z,1013.63
2023-05-09T07:36:46.629Z,1013.60
2023-05-09T07:38:21.701Z,1013.63
2023-05-09T07:39:24.651Z,1013.59
2023-05-09T07:40:28.223Z,1013.63
2023-05-09T07:42:03.219Z,1013.59
2023-05-09T07:43:06.377Z,1013.58
2023-05-09T07:44:09.714Z,1013.55
2023-05-09T07:45:44.992Z,1013.49
2023-05-09T07:46:48.824Z,1013.50
2023-05-09T07:47:52.064Z,1013.50
2023-05-09T07:49:27.338Z,1013.46
2023-05-09T07:50:30.561Z,1013.46
2023-05-09T07:51:33.605Z,1013.46
2023-05-09T07:53:09.020Z,1013.45
2023-05-09T07:54:12.184Z,1013.44
2023-05-09T07:55:15.501Z,1013.43
2023-05-09T07:56:50.503Z,1013.45
2023-05-09T07:57:53.456Z,1013.44
2023-05-09T07:58:56.439Z,1013.39
2023-05-09T08:00:23.830Z,1013.34
2023-05-09T08:01:27.094Z,1013.31
2023-05-09T08:02:30.496Z,1013.32
2023-05-09T08:04:06.926Z,1013.28
2023-05-09T08:05:10.229Z,1013.31
2023-05-09T08:06:13.978Z,1013.25
2023-05-09T08:07:48.712Z,1013.27
2023-05-09T08:08:51.652Z,1013.23
2023-05-09T08:09:54.806Z,1013.20
2023-05-09T08:11:30.132Z,1013.18
2023-05-09T08:12:33.326Z,1013.19
2023-05-09T08:13:36.622Z,1013.16
2023-05-09T08:15:11.592Z,1013.15
2023-05-09T08:16:15.330Z,1013.14
2023-05-09T08:17:19.054Z,1013.09
2023-05-09T08:18:54.057Z,1013.10
2023-05-09T08:19:57.519Z,1013.12
2023-05-09T08:21:00.532Z,1013.05
2023-05-09T08:22:37.342Z,1013.01
2023-05-09T08:23:40.516Z,1013.03
2023-05-09T08:24:43.609Z,1013.03
2023-05-09T08:26:18.698Z,1012.98
2023-05-09T08:27:22.012Z,1012.97
2023-05-09T08:28:25.096Z,1012.93
2023-05-09T08:30:00.241Z,1012.95
2023-05-09T08:31:04.142Z,1012.97
2023-05-09T08:32:07.823Z,1012.91
2023-05-09T08:33:44.513Z,1012.90
2023-05-09T08:34:47.449Z,1012.89
2023-05-09T08:35:50.555Z,1012.84
2023-05-09T08:37:26.954Z,1012.84
2023-05-09T08:38:30.105Z,1012.84
2023-05-09T08:39:33.335Z,1012.83
2023-05-09T08:41:08.519Z,1012.83
2023-05-09T08:42:11.520Z,1012.86
2023-05-09T08:43:17.906Z,1012.85
2023-05-09T08:44:53.090Z,1012.84
2023-05-09T08:45:56.181Z,1012.85
2023-05-09T08:46:59.826Z,1012.84
2023-05-09T08:48:36.057Z,1012.80
2023-05-09T08:49:39.216Z,1012.80
2023-05-09T08:50:42.581Z,1012.71
2023-05-09T08:52:17.516Z,1012.75
2023-05-09T08:53:20.872Z,1012.76
2023-05-09T08:54:25.232Z,1012.68
2023-05-09T08:56:00.198Z,1012.67
2023-05-09T08:57:03.416Z,1012.70
2023-05-09T08:58:06.325Z,1012.66
2023-05-09T08:59:41.567Z,1012.65
2023-05-09T09:01:26.547Z,1012.59
2023-05-09T09:02:29.978Z,1012.59
2023-05-09T09:04:05.432Z,1012.57
2023-05-09T09:05:19.620Z,1012.58
2023-05-09T09:06:37.713Z,1012.58
2023-05-09T09:08:12.791Z,1012.52
2023-05-09T09:09:15.779Z,1012.55
2023-05-09T09:10:19.297Z,1012.53
2023-05-09T09:11:54.701Z,1012.49
2023-05-09T09:13:01.304Z,1012.45
2023-05-09T09:14:04.815Z,1012.43
2023-05-09T09:15:40.205Z,1012.42
2023-05-09T09:16:43.851Z,1012.37
2023-05-09T09:17:47.469Z,1012.40
2023-05-09T09:19:26.441Z,1012.43
2023-05-09T09:20:29.576Z,1012.43
2023-05-09T09:21:32.736Z,1012.38
2023-05-09T09:23:07.876Z,1012.34
2023-05-09T09:24:10.744Z,1012.31
2023-05-09T09:25:13.727Z,1012.25
2023-05-09T09:26:48.884Z,1012.27
2023-05-09T09:27:51.906Z,1012.25
2023-05-09T09:28:55.324Z,1012.24
2023-05-09T09:30:30.417Z,1012.22
2023-05-09T09:31:33.754Z,1012.27
2023-05-09T09:32:37.144Z,1012.24
2023-05-09T09:34:12.517Z,1012.28
2023-05-09T09:35:16.171Z,1012.24
2023-05-09T09:36:19.255Z,1012.24
2023-05-09T09:37:54.533Z,1012.23
2023-05-09T09:38:58.221Z,1012.25
2023-05-09T09:40:01.240Z,1012.20
2023-05-09T09:41:36.798Z,1012.20
2023-05-09T09:42:39.767Z,1012.17
2023-05-09T09:43:42.695Z,1012.16
2023-05-09T09:45:17.915Z,1012.15
2023-05-09T09:46:21.462Z,1012.14
2023-05-09T09:47:25.188Z,1012.12
2023-05-09T09:49:00.568Z,1012.14
2023-05-09T09:50:03.793Z,1012.13
2023-05-09T09:51:07.096Z,1012.09
2023-05-09T09:52:42.128Z,1012.13
2023-05-09T09:53:45.343Z,1012.08
2023-05-09T09:54:48.497Z,1012.09
2023-05-09T09:56:23.853Z,1012.14
2023-05-09T09:57:27.118Z,1012.08
2023-05-09T09:58:30.288Z,1012.13
2023-05-09T10:00:24.382Z,1012.14
2023-05-09T10:01:27.515Z,1012.12
2023-05-09T10:02:30.844Z,1012.10
2023-05-09T10:04:06.538Z,1012.06
2023-05-09T10:05:10.200Z,1012.03
2023-05-09T10:06:13.502Z,1012.01
2023-05-09T10:07:48.666Z,1012.02
2023-05-09T10:08:51.725Z,1011.98
2023-05-09T10:09:54.927Z,1012.00
2023-05-09T10:11:30.065Z,1012.08
2023-05-09T10:12:33.289Z,1012.06
2023-05-09T10:13:36.600Z,1012.06
2023-05-09T10:15:11.572Z,1012.07
2023-05-09T10:16:31.953Z,1012.06
2023-05-09T10:17:47.079Z,1012.07
2023-05-09T10:19:23.228Z,1012.04
2023-05-09T10:20:26.651Z,1012.07
2023-05-09T10:21:29.626Z,1012.02
2023-05-09T10:23:07.468Z,1012.01
2023-05-09T10:24:10.549Z,1011.99
2023-05-09T10:25:13.812Z,1011.99
2023-05-09T10:26:49.067Z,1012.02
2023-05-09T10:27:52.014Z,1011.98
2023-05-09T10:28:54.948Z,1011.97
2023-05-09T10:30:30.336Z,1011.95
2023-05-09T10:31:35.428Z,1011.92
2023-05-09T10:32:39.222Z,1011.95
2023-05-09T10:34:14.209Z,1011.90
2023-05-09T10:35:17.568Z,1011.88
2023-05-09T10:36:20.726Z,1011.86
2023-05-09T10:37:55.720Z,1011.85
2023-05-09T10:38:58.755Z,1011.83
2023-05-09T10:40:01.800Z,1011.82
2023-05-09T10:41:36.902Z,1011.76
2023-05-09T10:42:40.024Z,1011.77
2023-05-09T10:43:43.483Z,1011.77
2023-05-09T10:45:19.590Z,1011.79
2023-05-09T10:46:22.685Z,1011.83
2023-05-09T10:47:26.083Z,1011.80
2023-05-09T10:49:01.290Z,1011.79
2023-05-09T10:50:04.330Z,1011.76
2023-05-09T10:51:07.553Z,1011.75
2023-05-09T10:52:42.398Z,1011.74
2023-05-09T10:53:45.416Z,1011.72
2023-05-09T10:54:48.520Z,1011.73
2023-05-09T10:56:23.541Z,1011.64
2023-05-09T10:57:26.766Z,1011.66
2023-05-09T10:58:29.766Z,1011.64
2023-05-09T11:00:23.633Z,1011.60
2023-05-09T11:01:26.647Z,1011.50
2023-05-09T11:02:29.980Z,1011.50
2023-05-09T11:04:05.582Z,1011.59
2023-05-09T11:05:09.168Z,1011.57
2023-05-09T11:06:12.669Z,1011.52
2023-05-09T11:07:48.133Z,1011.48
2023-05-09T11:08:51.285Z,1011.48
2023-05-09T11:09:54.493Z,1011.46
2023-05-09T11:11:29.435Z,1011.46
2023-05-09T11:12:32.817Z,1011.45
2023-05-09T11:13:36.419Z,1011.44
2023-05-09T11:15:11.495Z,1011.44
2023-05-09T11:16:14.747Z,1011.41
2023-05-09T11:17:17.906Z,1011.42
2023-05-09T11:18:53.053Z,1011.42
2023-05-09T11:19:56.161Z,1011.39
2023-05-09T11:20:59.122Z,1011.38
2023-05-09T11:22:33.986Z,1011.32
2023-05-09T11:23:37.078Z,1011.36
2023-05-09T11:24:41.802Z,1011.29
2023-05-09T11:26:17.086Z,1011.25
2023-05-09T11:27:20.041Z,1011.30
2023-05-09T11:28:23.161Z,1011.30
2023-05-09T11:29:57.914Z,1011.29
2023-05-09T11:31:02.229Z,1011.31
2023-05-09T11:32:05.370Z,1011.29
2023-05-09T11:33:40.489Z,1011.28
2023-05-09T11:34:43.491Z,1011.31
2023-05-09T11:35:46.368Z,1011.29
2023-05-09T11:37:21.240Z,1011.21
2023-05-09T11:38:24.529Z,1011.25
2023-05-09T11:39:27.753Z,1011.25
2023-05-09T11:41:02.612Z,1011.22
2023-05-09T11:42:05.643Z,1011.20
2023-05-09T11:43:10.505Z,1011.24
2023-05-09T11:44:45.457Z,1011.19
2023-05-09T11:45:48.491Z,1011.19
2023-05-09T11:46:51.653Z,1011.21
2023-05-09T11:48:26.617Z,1011.18
2023-05-09T11:49:29.541Z,1011.16
2023-05-09T11:50:32.389Z,1011.18
2023-05-09T11:52:07.400Z,1011.14
2023-05-09T11:53:10.393Z,1011.15
2023-05-09T11:54:13.308Z,1011.13
2023-05-09T11:55:48.525Z,1011.10
2023-05-09T11:56:51.425Z,1011.12
2023-05-09T11:57:54.543Z,1011.13
2023-05-09T11:59:29.518Z,1011.09
2023-05-09T12:00:23.180Z,1011.10
2023-05-09T12:01:26.359Z,1011.11
2023-05-09T12:02:29.483Z,1011.13
2023-05-09T12:04:05.442Z,1011.12
2023-05-09T12:05:08.593Z,1011.07
2023-05-09T12:06:12.112Z,1011.06
2023-05-09T12:07:46.742Z,1011.11
2023-05-09T12:08:49.761Z,1011.10
2023-05-09T12:09:52.735Z,1011.13
2023-05-09T12:11:27.487Z,1011.06
2023-05-09T12:12:30.605Z,1011.09
2023-05-09T12:13:33.850Z,1011.08
2023-05-09T12:15:09.026Z,1011.09
2023-05-09T12:16:13.778Z,1011.07
2023-05-09T12:17:17.261Z,1011.08
2023-05-09T12:18:52.538Z,1011.10
2023-05-09T12:19:55.452Z,1011.08
2023-05-09T12:20:58.603Z,1011.07
2023-05-09T12:22:33.396Z,1011.01
2023-05-09T12:23:36.445Z,1011.00
2023-05-09T12:24:42.732Z,1010.99
2023-05-09T12:26:17.660Z,1011.02
2023-05-09T12:27:20.700Z,1010.99
2023-05-09T12:28:23.669Z,1010.99
2023-05-09T12:30:00.782Z,1011.03
2023-05-09T12:31:03.878Z,1010.98
2023-05-09T12:32:07.147Z,1010.99
2023-05-09T12:33:41.937Z,1010.95
2023-05-09T12:34:44.803Z,1010.95
2023-05-09T12:35:47.760Z,1010.93
2023-05-09T12:37:23.752Z,1010.91
2023-05-09T12:38:27.267Z,1010.90
2023-05-09T12:39:30.300Z,1010.88
2023-05-09T12:42:49.506Z,1010.89
2023-05-09T12:43:52.594Z,1010.86
2023-05-09T12:45:28.084Z,1010.88
2023-05-09T12:46:31.711Z,1010.88
2023-05-09T12:47:35.511Z,1010.83
2023-05-09T12:49:10.889Z,1010.86
2023-05-09T12:50:14.347Z,1010.85
2023-05-09T12:51:17.637Z,1010.88
2023-05-09T12:53:14.235Z,1010.85
2023-05-09T12:54:17.249Z,1010.84
2023-05-09T12:55:20.938Z,1010.90
2023-05-09T12:56:55.575Z,1010.79
2023-05-09T12:57:58.381Z,1010.75
2023-05-09T12:59:01.202Z,1010.79
2023-05-09T13:00:24.087Z,1010.74
2023-05-09T13:01:27.916Z,1010.74
2023-05-09T13:02:31.874Z,1010.68
2023-05-09T13:04:07.275Z,1010.66
2023-05-09T13:05:10.766Z,1010.69
2023-05-09T13:06:14.130Z,1010.65
2023-05-09T13:07:48.980Z,1010.67
2023-05-09T13:08:52.105Z,1010.68
2023-05-09T13:09:55.148Z,1010.68
2023-05-09T13:11:30.805Z,1010.66
2023-05-09T13:12:33.861Z,1010.67
2023-05-09T13:13:36.932Z,1010.67
2023-05-09T13:15:12.098Z,1010.62
2023-05-09T13:16:18.506Z,1010.60
2023-05-09T13:17:22.139Z,1010.55
2023-05-09T13:18:57.463Z,1010.58
2023-05-09T13:20:00.309Z,1010.60
2023-05-09T13:21:04.555Z,1010.55
2023-05-09T13:22:39.474Z,1010.55
2023-05-09T13:23:42.537Z,1010.51
2023-05-09T13:24:45.534Z,1010.45
2023-05-09T13:26:20.682Z,1010.52
2023-05-09T13:27:23.567Z,1010.48
2023-05-09T13:28:26.461Z,1010.46
2023-05-09T13:30:01.007Z,1010.50
2023-05-09T13:31:04.921Z,1010.46
2023-05-09T13:32:08.433Z,1010.46
2023-05-09T13:33:43.239Z,1010.50
2023-05-09T13:34:49.094Z,1010.46
2023-05-09T13:35:54.751Z,1010.42
2023-05-09T13:37:29.919Z,1010.46
2023-05-09T13:38:32.958Z,1010.44
2023-05-09T13:39:36.006Z,1010.41
2023-05-09T13:41:11.637Z,1010.42
2023-05-09T13:42:14.597Z,1010.41
2023-05-09T13:43:17.540Z,1010.39
2023-05-09T13:44:52.527Z,1010.35
2023-05-09T13:45:55.472Z,1010.36
2023-05-09T13:46:59.002Z,1010.38
2023-05-09T13:48:33.590Z,1010.33
2023-05-09T13:49:36.498Z,1010.30
2023-05-09T13:50:39.355Z,1010.32
2023-05-09T13:52:14.367Z,1010.28
2023-05-09T13:53:17.320Z,1010.31
2023-05-09T13:54:20.652Z,1010.34
2023-05-09T13:55:55.653Z,1010.32
2023-05-09T13:56:58.591Z,1010.27
2023-05-09T13:58:01.765Z,1010.29
2023-05-09T13:59:36.682Z,1010.27
2023-05-09T14:01:26.436Z,1010.23
2023-05-09T14:02:30.090Z,1010.21
2023-05-09T14:04:05.385Z,1010.18
2023-05-09T14:05:08.677Z,1010.16
2023-05-09T14:06:12.446Z,1010.14
2023-05-09T14:07:48.491Z,1010.15
2023-05-09T14:08:51.269Z,1010.13
2023-05-09T14:10:11.392Z,1010.13
2023-05-09T14:11:47.649Z,1010.10
2023-05-09T14:12:50.624Z,1010.07
2023-05-09T14:13:54.081Z,1010.05
2023-05-09T14:15:29.066Z,1010.07
2023-05-09T14:16:32.612Z,1010.03
2023-05-09T14:17:35.829Z,1010.02
2023-05-09T14:19:10.870Z,1009.98
2023-05-09T14:20:14.488Z,1009.99
2023-05-09T14:21:17.588Z,1009.96
2023-05-09T14:22:52.305Z,1009.95
2023-05-09T14:23:55.309Z,1009.91
2023-05-09T14:25:01.967Z,1009.88
2023-05-09T14:26:37.064Z,1009.85
2023-05-09T14:27:40.294Z,1009.85
2023-05-09T14:28:43.335Z,1009.84
2023-05-09T14:30:18.946Z,1009.81
2023-05-09T14:31:21.969Z,1009.80
2023-05-09T14:32:25.410Z,1009.81
2023-05-09T14:34:00.387Z,1009.78
2023-05-09T14:35:03.603Z,1009.79
2023-05-09T14:36:06.700Z,1009.79
2023-05-09T14:37:41.425Z,1009.82
2023-05-09T14:38:44.284Z,1009.74
2023-05-09T14:39:47.091Z,1009.78
2023-05-09T14:41:22.165Z,1009.72
2023-05-09T14:42:25.440Z,1009.71
2023-05-09T14:43:28.394Z,1009.69
2023-05-09T14:45:03.618Z,1009.65
2023-05-09T14:46:06.526Z,1009.66
2023-05-09T14:47:10.177Z,1009.61
2023-05-09T14:48:45.261Z,1009.64
2023-05-09T14:49:48.243Z,1009.60
2023-05-09T14:50:51.298Z,1009.59
2023-05-09T14:52:26.030Z,1009.59
2023-05-09T14:53:28.951Z,1009.59
2023-05-09T14:54:32.006Z,1009.61
2023-05-09T14:56:06.830Z,1009.55
2023-05-09T14:57:09.899Z,1009.56
2023-05-09T14:58:12.883Z,1009.57
2023-05-09T14:59:48.597Z,1009.54
2023-05-09T15:01:36.554Z,1009.51